createdAt,value
2019-04-03T04:00:27.600Z,1
2019-04-03T04:03:55.555Z,1
2019-04-03T04:07:23.520Z,2
2019-04-03T04:10:51.140Z,4
2019-04-03T04:14:23.955Z,7
2019-04-03T04:17:53.754Z,12
2019-04-03T04:21:21.572Z,22
2019-04-03T04:24:49.439Z,35
2019-04-03T04:28:17.243Z,50
2019-04-03T04:31:46.982Z,67
2019-04-03T04:35:14.814Z,97
2019-04-03T04:38:43.641Z,141
2019-04-03T04:42:11.473Z,185
2019-04-03T04:45:40.770Z,265
2019-04-03T04:49:09.151Z,413
2019-04-03T04:52:36.995Z,565
2019-04-03T04:56:06.472Z,743
2019-04-03T04:59:36.431Z,949
2019-04-03T05:03:05.439Z,1127
2019-04-03T05:06:33.252Z,1260
2019-04-03T05:10:01.061Z,1436
2019-04-03T05:13:30.896Z,1544
2019-04-03T05:16:59.003Z,1593
2019-04-03T05:20:26.590Z,1750
2019-04-03T05:23:56.000Z,2124
2019-04-03T05:27:27.200Z,2395
2019-04-03T05:30:56.020Z,2315
2019-04-03T05:34:23.847Z,2316
2019-04-03T05:37:53.652Z,2450
2019-04-03T05:41:21.491Z,2712
2019-04-03T05:44:50.294Z,2961
2019-04-03T05:48:20.114Z,3320
2019-04-03T05:51:48.028Z,3705
2019-04-03T05:55:15.762Z,4170
2019-04-03T05:58:55.143Z,4574
2019-04-03T06:02:21.969Z,5030
2019-04-03T06:05:49.161Z,5395
2019-04-03T06:09:17.024Z,5487
2019-04-03T06:12:47.832Z,5834
2019-04-03T06:16:17.639Z,6193
2019-04-03T06:19:46.723Z,6545
2019-04-03T06:23:14.293Z,6955
2019-04-03T06:26:44.433Z,7258
2019-04-03T06:30:11.905Z,7514
2019-04-03T06:33:40.029Z,7681
2019-04-03T06:37:07.625Z,7650
2019-04-03T06:40:37.436Z,7422
2019-04-03T06:44:05.278Z,7349
2019-04-03T06:47:35.102Z,7190
2019-04-03T06:51:02.924Z,7128
2019-04-03T06:54:32.719Z,7168
2019-04-03T06:58:01.528Z,7122
2019-04-03T07:01:29.490Z,6905
2019-04-03T07:04:57.190Z,6816
2019-04-03T07:08:34.793Z,6887
2019-04-03T07:12:01.743Z,7118
2019-04-03T07:15:29.568Z,7373
2019-04-03T07:18:57.394Z,7455
2019-04-03T07:22:27.034Z,7595
2019-04-03T07:25:55.051Z,7568
2019-04-03T07:29:26.211Z,7569
2019-04-03T07:32:56.544Z,7830
2019-04-03T07:36:23.502Z,8338
2019-04-03T07:39:52.548Z,8648
2019-04-03T07:43:21.131Z,8838
2019-04-03T07:46:51.195Z,8984
2019-04-03T07:50:22.237Z,9370
2019-04-03T07:53:51.829Z,9232
2019-04-03T07:57:19.658Z,9324
2019-04-03T08:00:47.475Z,9547
2019-04-03T08:04:17.319Z,9599
2019-04-03T08:07:46.250Z,9898
2019-04-03T08:11:15.940Z,10276
2019-04-03T08:14:44.750Z,10724
2019-04-03T08:18:12.588Z,11123
2019-04-03T08:21:41.404Z,11315
2019-04-03T08:25:12.411Z,11493
2019-04-03T08:28:40.045Z,11642
2019-04-03T08:32:07.872Z,11934
2019-04-03T08:35:37.683Z,12072
2019-04-03T08:39:05.603Z,11924
2019-04-03T08:42:34.367Z,11929
2019-04-03T08:46:02.177Z,12067
2019-04-03T08:49:29.996Z,12349
2019-04-03T08:52:57.945Z,12877
2019-04-03T08:56:25.658Z,13161
2019-04-03T08:59:53.495Z,13397
2019-04-03T09:03:22.317Z,13542
2019-04-03T09:06:51.709Z,13122
2019-04-03T09:10:21.268Z,12852
2019-04-03T09:13:48.851Z,12506
2019-04-03T09:17:17.780Z,12407
2019-04-03T09:20:46.516Z,12707
2019-04-03T09:24:14.358Z,13126
2019-04-03T09:27:43.240Z,13353
2019-04-03T09:31:11.045Z,13164
2019-04-03T09:34:38.818Z,13146
2019-04-03T09:38:09.465Z,13161
2019-04-03T09:41:36.448Z,13055
2019-04-03T09:45:04.328Z,12607
2019-04-03T09:48:32.148Z,13231
2019-04-03T09:52:01.950Z,14066
2019-04-03T09:55:35.232Z,14946
2019-04-03T09:59:04.111Z,15161
2019-04-03T10:02:33.342Z,16004
2019-04-03T10:06:02.188Z,14772
2019-04-03T10:09:30.011Z,14106
2019-04-03T10:12:57.848Z,16348
2019-04-03T10:16:25.663Z,19336
2019-04-03T10:19:53.495Z,17652
2019-04-03T10:23:21.319Z,19768
2019-04-03T10:26:50.161Z,18754
2019-04-03T10:30:22.084Z,17413
2019-04-03T10:33:49.649Z,16717
2019-04-03T10:37:18.207Z,16411
2019-04-03T10:40:46.087Z,16583
2019-04-03T10:44:13.951Z,16984
2019-04-03T10:47:44.927Z,16914
2019-04-03T10:51:12.855Z,16899
2019-04-03T10:54:42.464Z,17325
2019-04-03T10:58:10.979Z,19601
2019-04-03T11:01:39.541Z,18197
2019-04-03T11:05:08.437Z,30184
2019-04-03T11:08:37.259Z,31136
2019-04-03T11:12:05.401Z,32720
2019-04-03T11:15:35.235Z,34816
2019-04-03T11:19:07.277Z,32624
2019-04-03T11:22:41.413Z,32352
2019-04-03T11:26:09.745Z,20160
2019-04-03T11:29:37.651Z,23120
2019-04-03T11:33:07.424Z,29992
2019-04-03T11:36:37.259Z,21496
2019-04-03T11:40:07.342Z,33504
2019-04-03T11:43:35.009Z,38504
2019-04-03T11:47:02.848Z,40304
2019-04-03T11:50:30.990Z,39008
2019-04-03T11:53:58.623Z,39776
2019-04-03T11:57:27.741Z,41520
2019-04-03T12:00:55.498Z,40160
2019-04-03T12:04:23.660Z,39712
2019-04-03T12:07:52.138Z,38840
2019-04-03T12:11:21.921Z,40408
2019-04-03T12:14:52.143Z,39192
2019-04-03T12:18:20.791Z,40840
2019-04-03T12:21:51.244Z,40912
2019-04-03T12:25:18.480Z,41288
2019-04-03T12:28:46.875Z,44456
2019-04-03T12:32:17.240Z,45280
2019-04-03T12:35:46.215Z,46936
2019-04-03T12:39:13.832Z,48064
2019-04-03T12:42:41.720Z,48392
2019-04-03T12:46:09.824Z,48080
2019-04-03T12:49:37.457Z,45352
2019-04-03T12:53:05.433Z,41824
2019-04-03T12:56:34.318Z,43272
2019-04-03T13:00:02.472Z,41648
2019-04-03T13:03:30.044Z,41720
2019-04-03T13:07:01.106Z,36856
2019-04-03T13:10:41.745Z,33456
2019-04-03T13:14:07.043Z,28784
2019-04-03T13:17:36.006Z,28504
2019-04-03T13:21:04.359Z,23576
2019-04-03T13:24:35.148Z,31976
2019-04-03T13:28:06.187Z,30688
2019-04-03T13:31:34.189Z,27184
2019-04-03T13:35:04.821Z,27136
2019-04-03T13:38:32.683Z,24200
2019-04-03T13:42:00.541Z,25952
2019-04-03T13:45:30.509Z,25704
2019-04-03T13:48:58.185Z,23024
2019-04-03T13:52:38.555Z,23976
2019-04-03T13:55:58.922Z,21656
2019-04-03T13:59:28.719Z,24784
2019-04-03T14:02:58.538Z,24656
2019-04-03T14:06:26.386Z,20744
2019-04-03T14:09:56.555Z,19808
2019-04-03T14:13:24.058Z,18376
2019-04-03T14:16:52.010Z,16945
2019-04-03T14:20:22.390Z,16353
2019-04-03T14:23:49.757Z,15606
2019-04-03T14:27:24.445Z,14822
2019-04-03T14:30:52.253Z,14322
2019-04-03T14:34:20.128Z,14707
2019-04-03T14:37:47.965Z,15255
2019-04-03T14:41:18.560Z,17856
2019-04-03T14:44:47.715Z,16242
2019-04-03T14:48:15.547Z,17400
2019-04-03T14:51:45.416Z,25448
2019-04-03T14:55:19.346Z,25024
2019-04-03T14:58:48.428Z,24856
2019-04-03T15:02:15.952Z,16851
2019-04-03T15:05:45.684Z,21400
2019-04-03T15:09:15.593Z,19600
2019-04-03T15:12:44.534Z,27208
2019-04-03T15:16:12.141Z,31872
2019-04-03T15:19:40.189Z,23104
2019-04-03T15:23:09.783Z,33384
2019-04-03T15:26:37.624Z,25856
2019-04-03T15:30:08.653Z,21200
2019-04-03T15:33:36.471Z,20768
2019-04-03T15:37:06.110Z,22960
2019-04-03T15:40:36.252Z,26608
2019-04-03T15:44:03.782Z,29216
2019-04-03T15:47:38.657Z,28360
2019-04-03T15:51:08.701Z,27712
2019-04-03T15:54:37.531Z,21960
2019-04-03T15:58:04.964Z,15344
2019-04-03T16:01:33.180Z,12428
2019-04-03T16:05:02.842Z,12063
2019-04-03T16:08:30.969Z,9162
2019-04-03T16:12:00.410Z,6526
2019-04-03T16:15:31.202Z,5867
2019-04-03T16:18:59.471Z,5379
2019-04-03T16:22:29.626Z,4877
2019-04-03T16:25:57.785Z,4134
2019-04-03T16:29:25.780Z,3754
2019-04-03T16:32:57.445Z,3461
2019-04-03T16:36:28.192Z,3171
2019-04-03T16:39:55.935Z,2942
2019-04-03T16:43:25.854Z,2773
2019-04-03T16:46:53.600Z,2607
2019-04-03T16:50:21.428Z,2378
2019-04-03T16:53:52.219Z,2121
2019-04-03T16:57:22.785Z,1849
2019-04-03T17:00:51.415Z,1566
2019-04-03T17:04:25.987Z,1342
2019-04-03T17:07:55.631Z,1199
2019-04-03T17:11:23.783Z,1098
2019-04-03T17:14:52.852Z,998
2019-04-03T17:18:21.588Z,877
2019-04-03T17:27:02.063Z,554
2019-04-03T17:30:32.249Z,452
2019-04-03T17:34:00.884Z,357
2019-04-03T17:37:33.455Z,292
2019-04-03T17:41:03.202Z,234
2019-04-03T17:44:33.293Z,174
2019-04-03T17:48:03.575Z,125
2019-04-03T17:51:35.607Z,90
2019-04-03T17:55:05.578Z,63
2019-04-03T17:58:36.469Z,42
2019-04-03T18:02:06.419Z,27
2019-04-03T18:05:36.383Z,16
2019-04-03T18:09:07.410Z,10
2019-04-03T18:12:37.309Z,5
2019-04-03T18:16:08.194Z,3
2019-04-03T18:19:41.805Z,1
2019-04-03T18:23:13.106Z,1
2019-04-03T18:26:45.254Z,1
2019-04-03T18:30:15.592Z,0
2019-04-03T18:33:46.767Z,0
2019-04-03T18:37:16.687Z,0
2019-04-03T18:40:48.642Z,0
2019-04-03T18:44:22.504Z,0
2019-04-03T18:47:54.408Z,0
2019-04-03T18:51:24.432Z,0
2019-04-03T18:54:54.331Z,0
2019-04-03T18:58:26.228Z,0
2019-04-03T19:01:56.154Z,0
2019-04-03T19:05:27.013Z,0
2019-04-03T19:09:04.399Z,0
2019-04-03T19:12:35.702Z,0
2019-04-03T19:16:03.846Z,0
2019-04-03T19:19:33.705Z,0
2019-04-03T19:23:07.051Z,0
2019-04-03T19:26:37.444Z,0
2019-04-03T19:30:09.289Z,0
2019-04-03T19:33:39.165Z,0
2019-04-03T19:37:10.136Z,0
2019-04-03T19:40:42.047Z,0
2019-04-03T19:44:11.913Z,0
2019-04-03T19:47:42.791Z,0
2019-04-03T19:51:14.732Z,0
2019-04-03T19:54:44.679Z,0
2019-04-03T19:58:15.553Z,0
2019-04-03T20:01:45.468Z,0
2019-04-03T20:05:18.862Z,0
2019-04-03T20:08:48.265Z,0
2019-04-03T20:12:18.187Z,0
2019-04-03T20:15:48.118Z,0
2019-04-03T20:19:19.024Z,0
2019-04-03T20:22:49.931Z,0
2019-04-03T20:26:19.822Z,0
2019-04-03T20:29:49.822Z,0
2019-04-03T20:33:19.720Z,0
2019-04-03T20:36:54.656Z,0
2019-04-03T20:40:22.499Z,0
2019-04-03T20:43:52.455Z,0
2019-04-03T20:47:22.341Z,0
2019-04-03T20:50:52.253Z,0
2019-04-03T20:54:23.218Z,0
2019-04-03T20:57:56.357Z,0
2019-04-03T21:01:26.135Z,0
2019-04-03T21:04:56.132Z,0
2019-04-03T21:08:31.408Z,0
2019-04-03T21:11:59.986Z,0
2019-04-03T21:15:29.894Z,0
2019-04-03T21:18:59.835Z,0
2019-04-03T21:22:31.751Z,0
2019-04-03T21:26:01.644Z,0
2019-04-03T21:29:31.623Z,0
2019-04-03T21:33:02.531Z,0
2019-04-03T21:36:32.455Z,0
2019-04-03T21:40:06.344Z,0
2019-04-03T21:43:37.243Z,0
2019-04-03T21:47:07.113Z,0
2019-04-03T21:50:37.051Z,0
2019-04-03T21:54:06.981Z,0
2019-04-03T21:57:38.925Z,0
